sensor_id;sensor_type;location;lat;lon;timestamp;temperature;humidity
1025;DHT22;501;48.214;11.350;2023-08-07T00:00:33;12.90;47.10
1025;DHT22;501;48.214;11.350;2023-08-07T00:02:59;13.00;46.50
1025;DHT22;501;48.214;11.350;2023-08-07T00:05:24;12.90;47.20
1025;DHT22;501;48.214;11.350;2023-08-07T00:07:51;12.90;47.60
1025;DHT22;501;48.214;11.350;2023-08-07T00:10:17;12.90;46.70
1025;DHT22;501;48.214;11.350;2023-08-07T00:12:43;12.90;48.30
1025;DHT22;501;48.214;11.350;2023-08-07T00:15:09;12.90;48.50
1025;DHT22;501;48.214;11.350;2023-08-07T00:17:35;12.80;48.40
1025;DHT22;501;48.214;11.350;2023-08-07T00:20:01;12.80;50.10
1025;DHT22;501;48.214;11.350;2023-08-07T00:22:26;12.80;50.60
1025;DHT22;501;48.214;11.350;2023-08-07T00:24:52;12.80;51.30
1025;DHT22;501;48.214;11.350;2023-08-07T00:27:17;12.80;51.50
1025;DHT22;501;48.214;11.350;2023-08-07T00:29:43;12.70;53.20
1025;DHT22;501;48.214;11.350;2023-08-07T00:32:09;12.70;54.90
1025;DHT22;501;48.214;11.350;2023-08-07T00:34:34;12.60;54.00
1025;DHT22;501;48.214;11.350;2023-08-07T00:37:00;12.60;56.00
1025;DHT22;501;48.214;11.350;2023-08-07T00:39:26;12.50;57.30
1025;DHT22;501;48.214;11.350;2023-08-07T00:41:51;12.50;56.70
1025;DHT22;501;48.214;11.350;2023-08-07T00:44:17;12.40;59.00
1025;DHT22;501;48.214;11.350;2023-08-07T00:46:43;12.40;61.70
1025;DHT22;501;48.214;11.350;2023-08-07T00:49:09;12.30;60.60
1025;DHT22;501;48.214;11.350;2023-08-07T00:51:37;12.20;61.90
1025;DHT22;501;48.214;11.350;2023-08-07T00:54:04;12.20;64.60
1025;DHT22;501;48.214;11.350;2023-08-07T00:56:31;12.20;62.00
1025;DHT22;501;48.214;11.350;2023-08-07T00:59:00;12.10;63.90
1025;DHT22;501;48.214;11.350;2023-08-07T01:01:26;12.10;63.60
1025;DHT22;501;48.214;11.350;2023-08-07T01:03:52;12.00;64.40
1025;DHT22;501;48.214;11.350;2023-08-07T01:06:17;12.00;65.80
1025;DHT22;501;48.214;11.350;2023-08-07T01:08:44;12.00;65.90
1025;DHT22;501;48.214;11.350;2023-08-07T01:17:20;11.90;69.50
1025;DHT22;501;48.214;11.350;2023-08-07T01:19:47;11.90;70.80
1025;DHT22;501;48.214;11.350;2023-08-07T01:22:17;11.90;69.10
1025;DHT22;501;48.214;11.350;2023-08-07T01:24:45;11.90;71.20
1025;DHT22;501;48.214;11.350;2023-08-07T01:30:16;11.90;70.00
1025;DHT22;501;48.214;11.350;2023-08-07T01:33:07;11.90;67.30
1025;DHT22;501;48.214;11.350;2023-08-07T01:35:39;11.80;67.60
1025;DHT22;501;48.214;11.350;2023-08-07T01:38:06;11.80;67.70
1025;DHT22;501;48.214;11.350;2023-08-07T01:40:32;11.80;71.00
1025;DHT22;501;48.214;11.350;2023-08-07T01:42:58;11.80;71.00
1025;DHT22;501;48.214;11.350;2023-08-07T01:45:25;11.80;71.40
1025;DHT22;501;48.214;11.350;2023-08-07T01:47:52;11.80;68.70
1025;DHT22;501;48.214;11.350;2023-08-07T01:50:19;11.80;68.70
1025;DHT22;501;48.214;11.350;2023-08-07T01:52:45;11.80;71.60
1025;DHT22;501;48.214;11.350;2023-08-07T01:55:11;11.70;70.50
1025;DHT22;501;48.214;11.350;2023-08-07T01:57:37;11.70;68.70
1025;DHT22;501;48.214;11.350;2023-08-07T02:00:02;11.70;68.90
1025;DHT22;501;48.214;11.350;2023-08-07T02:02:29;11.70;68.30
1025;DHT22;501;48.214;11.350;2023-08-07T02:04:54;11.70;70.20
1025;DHT22;501;48.214;11.350;2023-08-07T02:07:20;11.70;68.70
1025;DHT22;501;48.214;11.350;2023-08-07T02:09:46;11.70;70.30
1025;DHT22;501;48.214;11.350;2023-08-07T02:12:11;11.70;71.90
1025;DHT22;501;48.214;11.350;2023-08-07T02:14:37;11.70;72.20
1025;DHT22;501;48.214;11.350;2023-08-07T02:17:02;11.70;70.30
1025;DHT22;501;48.214;11.350;2023-08-07T02:19:28;11.70;69.60
1025;DHT22;501;48.214;11.350;2023-08-07T02:21:54;11.70;68.20
1025;DHT22;501;48.214;11.350;2023-08-07T02:24:19;11.70;68.50
1025;DHT22;501;48.214;11.350;2023-08-07T02:26:45;11.70;68.10
1025;DHT22;501;48.214;11.350;2023-08-07T02:29:11;11.70;69.80
1025;DHT22;501;48.214;11.350;2023-08-07T02:31:36;11.70;68.10
1025;DHT22;501;48.214;11.350;2023-08-07T02:34:02;11.70;68.10
1025;DHT22;501;48.214;11.350;2023-08-07T02:36:28;11.70;68.50
1025;DHT22;501;48.214;11.350;2023-08-07T02:38:53;11.70;66.00
1025;DHT22;501;48.214;11.350;2023-08-07T02:41:19;11.70;67.60
1025;DHT22;501;48.214;11.350;2023-08-07T02:43:45;11.70;67.40
1025;DHT22;501;48.214;11.350;2023-08-07T02:46:10;11.70;65.60
1025;DHT22;501;48.214;11.350;2023-08-07T02:48:36;11.70;65.70
1025;DHT22;501;48.214;11.350;2023-08-07T02:51:01;11.70;66.40
1025;DHT22;501;48.214;11.350;2023-08-07T02:53:27;11.70;68.40
1025;DHT22;501;48.214;11.350;2023-08-07T02:55:52;11.70;63.80
1025;DHT22;501;48.214;11.350;2023-08-07T02:58:18;11.70;66.40
1025;DHT22;501;48.214;11.350;2023-08-07T03:00:44;11.70;66.20
1025;DHT22;501;48.214;11.350;2023-08-07T03:03:09;11.70;66.10
1025;DHT22;501;48.214;11.350;2023-08-07T03:05:35;11.80;64.60
1025;DHT22;501;48.214;11.350;2023-08-07T03:08:00;11.80;64.20
1025;DHT22;501;48.214;11.350;2023-08-07T03:10:26;11.80;63.60
1025;DHT22;501;48.214;11.350;2023-08-07T03:12:52;11.80;61.60
1025;DHT22;501;48.214;11.350;2023-08-07T03:15:17;11.80;63.30
1025;DHT22;501;48.214;11.350;2023-08-07T03:17:43;11.80;62.00
1025;DHT22;501;48.214;11.350;2023-08-07T03:20:09;11.80;64.00
1025;DHT22;501;48.214;11.350;2023-08-07T03:22:36;11.80;64.40
1025;DHT22;501;48.214;11.350;2023-08-07T03:25:01;11.80;62.50
1025;DHT22;501;48.214;11.350;2023-08-07T03:27:28;11.80;62.80
1025;DHT22;501;48.214;11.350;2023-08-07T03:29:53;11.80;62.50
1025;DHT22;501;48.214;11.350;2023-08-07T03:32:19;11.80;60.20
1025;DHT22;501;48.214;11.350;2023-08-07T03:34:45;11.80;62.60
1025;DHT22;501;48.214;11.350;2023-08-07T03:37:10;11.90;62.80
1025;DHT22;501;48.214;11.350;2023-08-07T03:39:36;11.80;60.50
1025;DHT22;501;48.214;11.350;2023-08-07T03:42:01;11.90;61.50
1025;DHT22;501;48.214;11.350;2023-08-07T03:44:27;11.80;61.00
1025;DHT22;501;48.214;11.350;2023-08-07T03:46:52;11.90;59.30
1025;DHT22;501;48.214;11.350;2023-08-07T03:49:21;11.80;59.80
1025;DHT22;501;48.214;11.350;2023-08-07T03:51:46;11.80;59.10
1025;DHT22;501;48.214;11.350;2023-08-07T03:54:12;11.90;59.20
1025;DHT22;501;48.214;11.350;2023-08-07T03:56:38;11.90;59.20
1025;DHT22;501;48.214;11.350;2023-08-07T03:59:03;11.90;57.60
1025;DHT22;501;48.214;11.350;2023-08-07T04:01:29;11.90;57.10
1025;DHT22;501;48.214;11.350;2023-08-07T04:03:54;11.90;58.10
1025;DHT22;501;48.214;11.350;2023-08-07T04:06:20;11.90;58.70
1025;DHT22;501;48.214;11.350;2023-08-07T04:08:46;11.90;57.80
1025;DHT22;501;48.214;11.350;2023-08-07T04:11:12;11.90;56.70
1025;DHT22;501;48.214;11.350;2023-08-07T04:13:38;11.90;56.90
1025;DHT22;501;48.214;11.350;2023-08-07T04:16:04;11.90;56.40
1025;DHT22;501;48.214;11.350;2023-08-07T04:18:30;11.90;54.70
1025;DHT22;501;48.214;11.350;2023-08-07T04:20:58;11.90;56.10
1025;DHT22;501;48.214;11.350;2023-08-07T04:23:24;11.90;57.80
1025;DHT22;501;48.214;11.350;2023-08-07T04:25:51;11.90;55.00
1025;DHT22;501;48.214;11.350;2023-08-07T04:28:17;11.90;54.70
1025;DHT22;501;48.214;11.350;2023-08-07T04:30:44;11.90;55.20
1025;DHT22;501;48.214;11.350;2023-08-07T04:33:10;12.00;55.50
1025;DHT22;501;48.214;11.350;2023-08-07T04:35:35;12.00;52.00
1025;DHT22;501;48.214;11.350;2023-08-07T04:38:02;12.00;52.40
1025;DHT22;501;48.214;11.350;2023-08-07T04:40:29;12.00;52.80
1025;DHT22;501;48.214;11.350;2023-08-07T04:42:56;12.00;53.30
1025;DHT22;501;48.214;11.350;2023-08-07T04:45:22;12.00;51.30
1025;DHT22;501;48.214;11.350;2023-08-07T04:47:47;12.00;50.80
1025;DHT22;501;48.214;11.350;2023-08-07T04:50:13;12.00;50.80
1025;DHT22;501;48.214;11.350;2023-08-07T04:52:39;12.00;50.30
1025;DHT22;501;48.214;11.350;2023-08-07T04:55:05;12.00;50.00
1025;DHT22;501;48.214;11.350;2023-08-07T04:57:30;12.00;50.70
1025;DHT22;501;48.214;11.350;2023-08-07T04:59:56;12.00;49.30
1025;DHT22;501;48.214;11.350;2023-08-07T05:02:22;12.10;50.90
1025;DHT22;501;48.214;11.350;2023-08-07T05:04:48;12.10;50.90
1025;DHT22;501;48.214;11.350;2023-08-07T05:07:13;12.10;49.20
1025;DHT22;501;48.214;11.350;2023-08-07T05:09:39;12.10;50.10
1025;DHT22;501;48.214;11.350;2023-08-07T05:12:05;12.10;49.90
1025;DHT22;501;48.214;11.350;2023-08-07T05:14:32;12.10;48.50
1025;DHT22;501;48.214;11.350;2023-08-07T05:16:58;12.00;48.20
1025;DHT22;501;48.214;11.350;2023-08-07T05:19:25;12.00;48.80
1025;DHT22;501;48.214;11.350;2023-08-07T05:21:51;12.00;47.70
1025;DHT22;501;48.214;11.350;2023-08-07T05:24:19;12.00;47.40
1025;DHT22;501;48.214;11.350;2023-08-07T05:26:45;12.00;47.50
1025;DHT22;501;48.214;11.350;2023-08-07T05:29:11;12.00;48.20
1025;DHT22;501;48.214;11.350;2023-08-07T05:31:37;12.00;47.80
1025;DHT22;501;48.214;11.350;2023-08-07T05:34:02;12.00;49.90
1025;DHT22;501;48.214;11.350;2023-08-07T05:36:28;12.00;49.50
1025;DHT22;501;48.214;11.350;2023-08-07T05:38:55;12.10;48.30
1025;DHT22;501;48.214;11.350;2023-08-07T05:41:21;12.10;47.00
1025;DHT22;501;48.214;11.350;2023-08-07T05:43:46;12.00;48.20
1025;DHT22;501;48.214;11.350;2023-08-07T05:46:12;12.10;48.40
1025;DHT22;501;48.214;11.350;2023-08-07T05:48:37;12.10;47.90
1025;DHT22;501;48.214;11.350;2023-08-07T05:51:03;12.10;49.20
1025;DHT22;501;48.214;11.350;2023-08-07T05:53:29;12.10;48.30
1025;DHT22;501;48.214;11.350;2023-08-07T05:55:55;12.10;47.30
1025;DHT22;501;48.214;11.350;2023-08-07T05:58:21;12.10;49.90
1025;DHT22;501;48.214;11.350;2023-08-07T06:00:47;12.20;48.40
1025;DHT22;501;48.214;11.350;2023-08-07T06:03:12;12.20;48.20
1025;DHT22;501;48.214;11.350;2023-08-07T06:05:38;12.20;48.10
1025;DHT22;501;48.214;11.350;2023-08-07T06:08:04;12.20;47.60
1025;DHT22;501;48.214;11.350;2023-08-07T06:10:30;12.20;49.30
1025;DHT22;501;48.214;11.350;2023-08-07T06:12:55;12.20;47.90
1025;DHT22;501;48.214;11.350;2023-08-07T06:15:21;12.30;48.60
1025;DHT22;501;48.214;11.350;2023-08-07T06:17:47;12.40;45.90
1025;DHT22;501;48.214;11.350;2023-08-07T06:20:12;12.50;47.60
1025;DHT22;501;48.214;11.350;2023-08-07T06:22:40;12.50;45.90
1025;DHT22;501;48.214;11.350;2023-08-07T06:25:06;12.50;47.20
1025;DHT22;501;48.214;11.350;2023-08-07T06:27:32;12.60;47.00
1025;DHT22;501;48.214;11.350;2023-08-07T06:29:58;12.60;46.30
1025;DHT22;501;48.214;11.350;2023-08-07T06:32:25;12.60;45.70
1025;DHT22;501;48.214;11.350;2023-08-07T06:34:51;12.60;45.30
1025;DHT22;501;48.214;11.350;2023-08-07T06:37:16;12.60;45.00
1025;DHT22;501;48.214;11.350;2023-08-07T06:39:42;12.60;45.90
1025;DHT22;501;48.214;11.350;2023-08-07T06:42:08;12.70;45.40
1025;DHT22;501;48.214;11.350;2023-08-07T06:44:33;12.70;43.80
1025;DHT22;501;48.214;11.350;2023-08-07T06:46:59;12.70;43.90
1025;DHT22;501;48.214;11.350;2023-08-07T06:49:24;12.80;43.90
1025;DHT22;501;48.214;11.350;2023-08-07T06:51:50;12.80;42.70
1025;DHT22;501;48.214;11.350;2023-08-07T06:54:16;12.90;43.00
1025;DHT22;501;48.214;11.350;2023-08-07T06:56:41;13.00;42.90
1025;DHT22;501;48.214;11.350;2023-08-07T06:59:08;13.00;42.50
1025;DHT22;501;48.214;11.350;2023-08-07T07:01:34;13.10;43.00
1025;DHT22;501;48.214;11.350;2023-08-07T07:03:59;13.20;40.20
1025;DHT22;501;48.214;11.350;2023-08-07T07:06:25;13.20;40.60
1025;DHT22;501;48.214;11.350;2023-08-07T07:08:54;13.30;41.60
1025;DHT22;501;48.214;11.350;2023-08-07T07:11:20;13.40;42.50
1025;DHT22;501;48.214;11.350;2023-08-07T07:13:47;13.50;41.60
1025;DHT22;501;48.214;11.350;2023-08-07T07:16:13;13.60;43.30
1025;DHT22;501;48.214;11.350;2023-08-07T07:18:39;13.70;39.20
1025;DHT22;501;48.214;11.350;2023-08-07T07:21:05;13.70;40.30
1025;DHT22;501;48.214;11.350;2023-08-07T07:23:30;13.80;41.30
1025;DHT22;501;48.214;11.350;2023-08-07T07:25:56;13.90;41.70
1025;DHT22;501;48.214;11.350;2023-08-07T07:28:23;14.00;41.60
1025;DHT22;501;48.214;11.350;2023-08-07T07:30:49;14.10;39.70
1025;DHT22;501;48.214;11.350;2023-08-07T07:33:15;14.10;39.40
1025;DHT22;501;48.214;11.350;2023-08-07T07:35:41;14.20;36.60
1025;DHT22;501;48.214;11.350;2023-08-07T07:38:07;14.20;38.10
1025;DHT22;501;48.214;11.350;2023-08-07T07:40:34;14.30;37.50
1025;DHT22;501;48.214;11.350;2023-08-07T07:43:00;14.30;36.30
1025;DHT22;501;48.214;11.350;2023-08-07T07:45:25;14.30;36.20
1025;DHT22;501;48.214;11.350;2023-08-07T07:47:51;14.30;36.50
1025;DHT22;501;48.214;11.350;2023-08-07T07:50:16;14.30;36.80
1025;DHT22;501;48.214;11.350;2023-08-07T07:52:42;14.30;37.60
1025;DHT22;501;48.214;11.350;2023-08-07T07:55:09;14.40;37.90
1025;DHT22;501;48.214;11.350;2023-08-07T07:57:35;14.40;36.90
1025;DHT22;501;48.214;11.350;2023-08-07T08:00:01;14.50;36.70
1025;DHT22;501;48.214;11.350;2023-08-07T08:02:28;14.50;36.90
1025;DHT22;501;48.214;11.350;2023-08-07T08:04:53;14.50;36.80
1025;DHT22;501;48.214;11.350;2023-08-07T08:07:19;14.60;37.70
1025;DHT22;501;48.214;11.350;2023-08-07T08:09:45;14.60;38.10
1025;DHT22;501;48.214;11.350;2023-08-07T08:12:10;14.70;37.30
1025;DHT22;501;48.214;11.350;2023-08-07T08:14:36;14.70;38.20
1025;DHT22;501;48.214;11.350;2023-08-07T08:17:02;14.70;37.60
1025;DHT22;501;48.214;11.350;2023-08-07T08:19:27;14.80;37.70
1025;DHT22;501;48.214;11.350;2023-08-07T08:21:53;14.80;36.50
1025;DHT22;501;48.214;11.350;2023-08-07T08:24:19;14.80;36.40
1025;DHT22;501;48.214;11.350;2023-08-07T08:26:44;14.70;35.30
1025;DHT22;501;48.214;11.350;2023-08-07T08:29:14;14.70;37.00
1025;DHT22;501;48.214;11.350;2023-08-07T08:31:40;14.80;36.60
1025;DHT22;501;48.214;11.350;2023-08-07T08:34:05;14.80;36.60
1025;DHT22;501;48.214;11.350;2023-08-07T08:36:31;14.80;35.40
1025;DHT22;501;48.214;11.350;2023-08-07T08:38:56;14.80;35.20
1025;DHT22;501;48.214;11.350;2023-08-07T08:41:22;14.80;35.40
1025;DHT22;501;48.214;11.350;2023-08-07T08:43:50;14.80;35.80
1025;DHT22;501;48.214;11.350;2023-08-07T08:46:19;14.70;35.30
1025;DHT22;501;48.214;11.350;2023-08-07T08:48:50;14.70;35.30
1025;DHT22;501;48.214;11.350;2023-08-07T08:51:16;14.70;35.30
1025;DHT22;501;48.214;11.350;2023-08-07T08:53:45;14.70;36.00
1025;DHT22;501;48.214;11.350;2023-08-07T08:56:11;14.80;36.80
1025;DHT22;501;48.214;11.350;2023-08-07T08:58:37;14.80;35.50
1025;DHT22;501;48.214;11.350;2023-08-07T09:01:04;14.80;35.40
1025;DHT22;501;48.214;11.350;2023-08-07T09:03:31;14.70;35.30
1025;DHT22;501;48.214;11.350;2023-08-07T09:05:58;14.70;36.40
1025;DHT22;501;48.214;11.350;2023-08-07T09:08:27;14.70;36.80
1025;DHT22;501;48.214;11.350;2023-08-07T09:10:56;14.70;37.40
1025;DHT22;501;48.214;11.350;2023-08-07T09:13:23;14.70;35.80
1025;DHT22;501;48.214;11.350;2023-08-07T09:15:53;14.70;36.10
1025;DHT22;501;48.214;11.350;2023-08-07T09:18:19;14.70;35.30
1025;DHT22;501;48.214;11.350;2023-08-07T09:20:45;14.70;36.80
1025;DHT22;501;48.214;11.350;2023-08-07T09:23:11;14.90;35.50
1025;DHT22;501;48.214;11.350;2023-08-07T09:25:37;15.00;36.10
1025;DHT22;501;48.214;11.350;2023-08-07T09:28:04;15.20;36.90
1025;DHT22;501;48.214;11.350;2023-08-07T09:30:31;15.30;35.00
1025;DHT22;501;48.214;11.350;2023-08-07T09:33:00;15.40;34.00
1025;DHT22;501;48.214;11.350;2023-08-07T09:35:27;15.50;36.10
1025;DHT22;501;48.214;11.350;2023-08-07T09:37:54;15.60;35.90
1025;DHT22;501;48.214;11.350;2023-08-07T09:40:21;15.80;33.90
1025;DHT22;501;48.214;11.350;2023-08-07T09:42:54;15.80;34.10
1025;DHT22;501;48.214;11.350;2023-08-07T09:45:23;15.80;33.80
1025;DHT22;501;48.214;11.350;2023-08-07T09:48:02;15.80;33.20
1025;DHT22;501;48.214;11.350;2023-08-07T09:50:28;15.80;33.90
1025;DHT22;501;48.214;11.350;2023-08-07T09:52:54;15.90;34.90
1025;DHT22;501;48.214;11.350;2023-08-07T09:55:24;15.90;33.20
1025;DHT22;501;48.214;11.350;2023-08-07T09:57:50;15.90;32.50
1025;DHT22;501;48.214;11.350;2023-08-07T10:00:16;16.00;33.00
1025;DHT22;501;48.214;11.350;2023-08-07T10:02:48;16.10;33.50
1025;DHT22;501;48.214;11.350;2023-08-07T10:05:15;16.20;34.60
1025;DHT22;501;48.214;11.350;2023-08-07T10:07:41;16.40;34.20
1025;DHT22;501;48.214;11.350;2023-08-07T10:10:08;16.60;33.30
1025;DHT22;501;48.214;11.350;2023-08-07T10:12:34;16.80;32.60
1025;DHT22;501;48.214;11.350;2023-08-07T10:15:00;16.90;33.20
1025;DHT22;501;48.214;11.350;2023-08-07T10:17:27;16.90;32.10
1025;DHT22;501;48.214;11.350;2023-08-07T10:19:53;17.00;32.10
1025;DHT22;501;48.214;11.350;2023-08-07T10:22:19;17.00;31.20
1025;DHT22;501;48.214;11.350;2023-08-07T10:24:48;17.00;29.70
1025;DHT22;501;48.214;11.350;2023-08-07T10:27:16;17.10;31.90
1025;DHT22;501;48.214;11.350;2023-08-07T10:29:44;17.10;32.40
1025;DHT22;501;48.214;11.350;2023-08-07T10:32:12;17.20;33.00
1025;DHT22;501;48.214;11.350;2023-08-07T10:34:38;17.30;31.00
1025;DHT22;501;48.214;11.350;2023-08-07T10:37:07;17.40;29.50
1025;DHT22;501;48.214;11.350;2023-08-07T10:39:33;17.50;30.10
1025;DHT22;501;48.214;11.350;2023-08-07T10:41:59;17.50;30.30
1025;DHT22;501;48.214;11.350;2023-08-07T10:44:30;17.50;30.50
1025;DHT22;501;48.214;11.350;2023-08-07T10:46:59;17.40;30.00
1025;DHT22;501;48.214;11.350;2023-08-07T10:49:37;17.30;29.50
1025;DHT22;501;48.214;11.350;2023-08-07T10:54:29;17.00;30.50
1025;DHT22;501;48.214;11.350;2023-08-07T10:56:55;16.90;30.70
1025;DHT22;501;48.214;11.350;2023-08-07T10:59:20;16.80;31.70
1025;DHT22;501;48.214;11.350;2023-08-07T11:01:51;17.00;31.10
1025;DHT22;501;48.214;11.350;2023-08-07T11:04:17;17.10;32.20
1025;DHT22;501;48.214;11.350;2023-08-07T11:06:46;17.40;31.40
1025;DHT22;501;48.214;11.350;2023-08-07T11:09:12;17.50;30.50
1025;DHT22;501;48.214;11.350;2023-08-07T11:11:43;17.60;29.90
1025;DHT22;501;48.214;11.350;2023-08-07T11:14:19;17.60;30.00
1025;DHT22;501;48.214;11.350;2023-08-07T11:16:47;17.40;29.20
1025;DHT22;501;48.214;11.350;2023-08-07T11:19:17;17.20;30.40
1025;DHT22;501;48.214;11.350;2023-08-07T11:21:44;17.10;30.10
1025;DHT22;501;48.214;11.350;2023-08-07T11:24:13;17.00;30.40
1025;DHT22;501;48.214;11.350;2023-08-07T11:26:39;17.00;31.10
1025;DHT22;501;48.214;11.350;2023-08-07T11:29:04;17.00;29.80
1025;DHT22;501;48.214;11.350;2023-08-07T11:31:30;17.00;28.60
1025;DHT22;501;48.214;11.350;2023-08-07T11:33:57;17.00;29.30
1025;DHT22;501;48.214;11.350;2023-08-07T11:36:25;17.20;28.70
1025;DHT22;501;48.214;11.350;2023-08-07T11:38:51;17.30;28.80
1025;DHT22;501;48.214;11.350;2023-08-07T11:41:18;17.60;29.00
1025;DHT22;501;48.214;11.350;2023-08-07T11:43:44;17.80;29.10
1025;DHT22;501;48.214;11.350;2023-08-07T11:46:11;18.10;28.80
1025;DHT22;501;48.214;11.350;2023-08-07T11:48:38;18.30;28.00
1025;DHT22;501;48.214;11.350;2023-08-07T11:51:05;18.50;27.70
1025;DHT22;501;48.214;11.350;2023-08-07T11:53:34;18.60;26.80
1025;DHT22;501;48.214;11.350;2023-08-07T11:56:06;18.70;27.50
1025;DHT22;501;48.214;11.350;2023-08-07T11:58:36;18.80;27.40
1025;DHT22;501;48.214;11.350;2023-08-07T12:01:09;19.00;26.70
1025;DHT22;501;48.214;11.350;2023-08-07T12:03:37;19.50;26.00
1025;DHT22;501;48.214;11.350;2023-08-07T12:06:05;20.00;27.00
1025;DHT22;501;48.214;11.350;2023-08-07T12:11:06;20.60;24.20
1025;DHT22;501;48.214;11.350;2023-08-07T12:13:32;20.50;25.70
1025;DHT22;501;48.214;11.350;2023-08-07T12:16:01;20.40;24.10
1025;DHT22;501;48.214;11.350;2023-08-07T12:18:29;20.20;24.40
1025;DHT22;501;48.214;11.350;2023-08-07T12:21:03;20.00;23.90
1025;DHT22;501;48.214;11.350;2023-08-07T12:23:33;19.90;23.40
1025;DHT22;501;48.214;11.350;2023-08-07T12:25:58;19.70;24.90
1025;DHT22;501;48.214;11.350;2023-08-07T12:28:24;19.60;25.50
1025;DHT22;501;48.214;11.350;2023-08-07T12:30:51;19.40;24.70
1025;DHT22;501;48.214;11.350;2023-08-07T12:33:17;19.30;25.10
1025;DHT22;501;48.214;11.350;2023-08-07T12:35:42;19.30;25.90
1025;DHT22;501;48.214;11.350;2023-08-07T12:38:09;19.40;25.00
1025;DHT22;501;48.214;11.350;2023-08-07T12:40:35;19.50;24.80
1025;DHT22;501;48.214;11.350;2023-08-07T12:43:02;19.40;24.70
1025;DHT22;501;48.214;11.350;2023-08-07T12:45:28;19.30;25.60
1025;DHT22;501;48.214;11.350;2023-08-07T12:47:54;19.20;25.70
1025;DHT22;501;48.214;11.350;2023-08-07T12:50:19;19.00;25.10
1025;DHT22;501;48.214;11.350;2023-08-07T12:52:45;18.90;25.30
1025;DHT22;501;48.214;11.350;2023-08-07T12:55:11;18.80;26.20
1025;DHT22;501;48.214;11.350;2023-08-07T12:57:39;18.90;26.20
1025;DHT22;501;48.214;11.350;2023-08-07T13:00:06;19.00;25.00
1025;DHT22;501;48.214;11.350;2023-08-07T13:02:33;19.10;25.80
1025;DHT22;501;48.214;11.350;2023-08-07T13:04:59;19.30;26.90
1025;DHT22;501;48.214;11.350;2023-08-07T13:07:24;19.60;25.10
1025;DHT22;501;48.214;11.350;2023-08-07T13:09:50;19.60;24.60
1025;DHT22;501;48.214;11.350;2023-08-07T13:12:16;19.60;24.30
1025;DHT22;501;48.214;11.350;2023-08-07T13:14:42;19.40;23.70
1025;DHT22;501;48.214;11.350;2023-08-07T13:17:07;19.10;23.40
1025;DHT22;501;48.214;11.350;2023-08-07T13:19:33;18.80;25.00
1025;DHT22;501;48.214;11.350;2023-08-07T13:21:58;18.70;26.10
1025;DHT22;501;48.214;11.350;2023-08-07T13:24:24;18.70;25.50
1025;DHT22;501;48.214;11.350;2023-08-07T13:26:50;18.80;25.10
1025;DHT22;501;48.214;11.350;2023-08-07T13:29:15;18.80;24.70
1025;DHT22;501;48.214;11.350;2023-08-07T13:31:41;18.80;24.60
1025;DHT22;501;48.214;11.350;2023-08-07T13:34:08;18.70;23.80
1025;DHT22;501;48.214;11.350;2023-08-07T13:36:36;18.60;24.00
1025;DHT22;501;48.214;11.350;2023-08-07T13:39:04;18.50;24.00
1025;DHT22;501;48.214;11.350;2023-08-07T13:41:29;18.60;23.20
1025;DHT22;501;48.214;11.350;2023-08-07T13:43:55;18.60;23.00
1025;DHT22;501;48.214;11.350;2023-08-07T13:46:21;18.70;23.70
1025;DHT22;501;48.214;11.350;2023-08-07T13:48:47;18.60;23.10
1025;DHT22;501;48.214;11.350;2023-08-07T13:51:14;18.70;22.70
1025;DHT22;501;48.214;11.350;2023-08-07T13:53:41;18.70;24.50
1025;DHT22;501;48.214;11.350;2023-08-07T13:56:06;18.70;23.20
1025;DHT22;501;48.214;11.350;2023-08-07T13:58:34;18.60;24.00
1025;DHT22;501;48.214;11.350;2023-08-07T14:01:00;18.70;23.90
1025;DHT22;501;48.214;11.350;2023-08-07T14:03:25;18.60;23.90
1025;DHT22;501;48.214;11.350;2023-08-07T14:05:51;18.60;22.90
1025;DHT22;501;48.214;11.350;2023-08-07T14:08:17;18.50;24.00
1025;DHT22;501;48.214;11.350;2023-08-07T14:10:42;18.30;23.90
1025;DHT22;501;48.214;11.350;2023-08-07T14:13:09;18.20;24.70
1025;DHT22;501;48.214;11.350;2023-08-07T14:15:35;18.10;24.20
1025;DHT22;501;48.214;11.350;2023-08-07T14:18:01;18.00;24.60
1025;DHT22;501;48.214;11.350;2023-08-07T14:20:26;17.90;25.50
1025;DHT22;501;48.214;11.350;2023-08-07T14:22:52;17.80;24.90
1025;DHT22;501;48.214;11.350;2023-08-07T14:25:18;17.70;25.10
1025;DHT22;501;48.214;11.350;2023-08-07T14:27:44;17.50;25.60
1025;DHT22;501;48.214;11.350;2023-08-07T14:30:10;17.40;26.20
1025;DHT22;501;48.214;11.350;2023-08-07T14:32:36;17.30;26.30
1025;DHT22;501;48.214;11.350;2023-08-07T14:35:01;17.20;26.40
1025;DHT22;501;48.214;11.350;2023-08-07T14:37:27;17.20;26.40
1025;DHT22;501;48.214;11.350;2023-08-07T14:39:53;17.10;26.60
1025;DHT22;501;48.214;11.350;2023-08-07T14:42:19;17.10;26.70
1025;DHT22;501;48.214;11.350;2023-08-07T14:44:44;17.10;26.60
1025;DHT22;501;48.214;11.350;2023-08-07T14:47:10;17.10;26.80
1025;DHT22;501;48.214;11.350;2023-08-07T14:49:36;17.20;26.60
1025;DHT22;501;48.214;11.350;2023-08-07T14:52:01;17.20;26.60
1025;DHT22;501;48.214;11.350;2023-08-07T14:54:27;17.20;26.40
1025;DHT22;501;48.214;11.350;2023-08-07T14:56:52;17.20;27.20
1025;DHT22;501;48.214;11.350;2023-08-07T14:59:18;17.20;25.90
1025;DHT22;501;48.214;11.350;2023-08-07T15:01:44;17.20;26.50
1025;DHT22;501;48.214;11.350;2023-08-07T15:04:09;17.10;26.90
1025;DHT22;501;48.214;11.350;2023-08-07T15:06:36;17.10;26.60
1025;DHT22;501;48.214;11.350;2023-08-07T15:09:01;17.10;27.40
1025;DHT22;501;48.214;11.350;2023-08-07T15:11:27;17.20;27.00
1025;DHT22;501;48.214;11.350;2023-08-07T15:13:53;17.20;26.90
1025;DHT22;501;48.214;11.350;2023-08-07T15:16:18;17.20;26.90
1025;DHT22;501;48.214;11.350;2023-08-07T15:18:44;17.10;26.90
1025;DHT22;501;48.214;11.350;2023-08-07T15:21:10;17.10;26.90
1025;DHT22;501;48.214;11.350;2023-08-07T15:23:36;17.10;27.50
1025;DHT22;501;48.214;11.350;2023-08-07T15:26:02;17.10;28.30
1025;DHT22;501;48.214;11.350;2023-08-07T15:28:28;17.20;27.90
1025;DHT22;501;48.214;11.350;2023-08-07T15:30:54;17.20;28.30
1025;DHT22;501;48.214;11.350;2023-08-07T15:33:19;17.30;28.40
1025;DHT22;501;48.214;11.350;2023-08-07T15:35:45;17.30;28.80
1025;DHT22;501;48.214;11.350;2023-08-07T15:38:11;17.30;28.20
1025;DHT22;501;48.214;11.350;2023-08-07T15:40:38;17.20;28.70
1025;DHT22;501;48.214;11.350;2023-08-07T15:43:04;17.10;28.00
1025;DHT22;501;48.214;11.350;2023-08-07T15:45:30;17.00;28.60
1025;DHT22;501;48.214;11.350;2023-08-07T15:47:55;16.90;28.50
1025;DHT22;501;48.214;11.350;2023-08-07T15:50:21;16.80;30.00
1025;DHT22;501;48.214;11.350;2023-08-07T15:52:47;16.70;30.50
1025;DHT22;501;48.214;11.350;2023-08-07T15:55:13;16.70;30.10
1025;DHT22;501;48.214;11.350;2023-08-07T15:57:39;16.60;29.60
1025;DHT22;501;48.214;11.350;2023-08-07T16:00:06;16.60;30.80
1025;DHT22;501;48.214;11.350;2023-08-07T16:02:32;16.50;30.70
1025;DHT22;501;48.214;11.350;2023-08-07T16:04:58;16.50;31.80
1025;DHT22;501;48.214;11.350;2023-08-07T16:07:25;16.30;34.00
1025;DHT22;501;48.214;11.350;2023-08-07T16:09:54;16.30;34.00